Aviation Digital Data Service (ADDS)

Output produced by METARs form (0209 UTC 29 July 2016)
found at http://aviationweather.gov/adds/metars/
 
KSYR 282344Z 2900/2924 34004KT P6SM OVC250 
     FM291200 36006KT P6SM -SHRA BKN040 OVC100 
     FM291700 34010KT P6SM BKN200